sensor_id;sensor_type;location;lat;lon;timestamp;temperature;humidity
71978;DHT22;59848;48.158;11.512;2022-07-10T00:00:11;18.40;69.90
71978;DHT22;59848;48.158;11.512;2022-07-10T00:02:38;18.50;70.00
71978;DHT22;59848;48.158;11.512;2022-07-10T00:05:05;18.40;68.70
71978;DHT22;59848;48.158;11.512;2022-07-10T00:07:31;18.40;68.60
71978;DHT22;59848;48.158;11.512;2022-07-10T00:09:56;18.50;67.70
71978;DHT22;59848;48.158;11.512;2022-07-10T00:12:22;18.50;67.70
71978;DHT22;59848;48.158;11.512;2022-07-10T00:14:47;18.50;67.80
71978;DHT22;59848;48.158;11.512;2022-07-10T00:17:13;18.50;67.70
71978;DHT22;59848;48.158;11.512;2022-07-10T00:19:39;18.60;67.10
71978;DHT22;59848;48.158;11.512;2022-07-10T00:22:04;18.60;66.20
71978;DHT22;59848;48.158;11.512;2022-07-10T00:24:30;18.70;66.20
71978;DHT22;59848;48.158;11.512;2022-07-10T00:26:56;18.60;65.90
71978;DHT22;59848;48.158;11.512;2022-07-10T00:29:21;18.70;66.30
71978;DHT22;59848;48.158;11.512;2022-07-10T00:31:47;18.60;67.90
71978;DHT22;59848;48.158;11.512;2022-07-10T00:34:12;18.40;71.00
71978;DHT22;59848;48.158;11.512;2022-07-10T00:36:38;18.10;71.50
71978;DHT22;59848;48.158;11.512;2022-07-10T00:39:04;17.90;74.40
71978;DHT22;59848;48.158;11.512;2022-07-10T00:41:29;17.70;75.60
71978;DHT22;59848;48.158;11.512;2022-07-10T00:43:56;17.50;75.50
71978;DHT22;59848;48.158;11.512;2022-07-10T00:46:23;17.30;75.10
71978;DHT22;59848;48.158;11.512;2022-07-10T00:48:49;17.20;75.70
71978;DHT22;59848;48.158;11.512;2022-07-10T00:51:16;17.20;76.90
71978;DHT22;59848;48.158;11.512;2022-07-10T00:53:44;17.10;78.40
71978;DHT22;59848;48.158;11.512;2022-07-10T00:56:11;17.00;79.00
71978;DHT22;59848;48.158;11.512;2022-07-10T00:58:37;16.90;79.10
71978;DHT22;59848;48.158;11.512;2022-07-10T01:01:05;16.80;78.80
71978;DHT22;59848;48.158;11.512;2022-07-10T01:03:31;16.80;78.50
71978;DHT22;59848;48.158;11.512;2022-07-10T01:05:57;16.70;78.80
71978;DHT22;59848;48.158;11.512;2022-07-10T01:08:24;16.70;79.40
71978;DHT22;59848;48.158;11.512;2022-07-10T01:10:49;16.70;80.30
71978;DHT22;59848;48.158;11.512;2022-07-10T01:13:15;16.70;79.90
71978;DHT22;59848;48.158;11.512;2022-07-10T01:15:41;16.60;80.90
71978;DHT22;59848;48.158;11.512;2022-07-10T01:18:07;16.70;81.30
71978;DHT22;59848;48.158;11.512;2022-07-10T01:20:33;16.70;80.90
71978;DHT22;59848;48.158;11.512;2022-07-10T01:22:59;16.60;80.00
71978;DHT22;59848;48.158;11.512;2022-07-10T01:25:24;16.60;80.90
71978;DHT22;59848;48.158;11.512;2022-07-10T01:27:50;16.60;81.00
71978;DHT22;59848;48.158;11.512;2022-07-10T01:30:16;16.50;81.40
71978;DHT22;59848;48.158;11.512;2022-07-10T01:32:43;16.50;81.40
71978;DHT22;59848;48.158;11.512;2022-07-10T01:35:09;16.50;81.90
71978;DHT22;59848;48.158;11.512;2022-07-10T01:37:34;16.60;81.30
71978;DHT22;59848;48.158;11.512;2022-07-10T01:40:00;16.40;81.00
71978;DHT22;59848;48.158;11.512;2022-07-10T01:42:25;16.40;81.80
71978;DHT22;59848;48.158;11.512;2022-07-10T01:44:51;16.50;81.60
71978;DHT22;59848;48.158;11.512;2022-07-10T01:47:16;16.40;81.60
71978;DHT22;59848;48.158;11.512;2022-07-10T01:49:42;16.40;82.00
71978;DHT22;59848;48.158;11.512;2022-07-10T01:52:07;16.40;81.70
71978;DHT22;59848;48.158;11.512;2022-07-10T01:54:35;16.30;82.00
71978;DHT22;59848;48.158;11.512;2022-07-10T01:57:00;16.30;82.30
71978;DHT22;59848;48.158;11.512;2022-07-10T01:59:26;16.30;82.60
71978;DHT22;59848;48.158;11.512;2022-07-10T02:01:51;16.30;81.10
71978;DHT22;59848;48.158;11.512;2022-07-10T02:04:17;16.30;82.30
71978;DHT22;59848;48.158;11.512;2022-07-10T02:07:01;16.30;81.00
71978;DHT22;59848;48.158;11.512;2022-07-10T02:09:26;16.30;81.70
71978;DHT22;59848;48.158;11.512;2022-07-10T02:11:52;16.30;81.50
71978;DHT22;59848;48.158;11.512;2022-07-10T02:14:18;16.30;81.50
71978;DHT22;59848;48.158;11.512;2022-07-10T02:16:43;16.30;82.10
71978;DHT22;59848;48.158;11.512;2022-07-10T02:19:10;16.20;82.10
71978;DHT22;59848;48.158;11.512;2022-07-10T02:21:35;16.20;82.10
71978;DHT22;59848;48.158;11.512;2022-07-10T02:24:01;16.20;82.20
71978;DHT22;59848;48.158;11.512;2022-07-10T02:26:26;16.20;82.20
71978;DHT22;59848;48.158;11.512;2022-07-10T02:28:52;16.20;82.00
71978;DHT22;59848;48.158;11.512;2022-07-10T02:31:17;16.00;82.10
71978;DHT22;59848;48.158;11.512;2022-07-10T02:33:43;16.00;82.60
71978;DHT22;59848;48.158;11.512;2022-07-10T02:36:08;16.00;82.80
71978;DHT22;59848;48.158;11.512;2022-07-10T02:38:34;16.00;83.00
71978;DHT22;59848;48.158;11.512;2022-07-10T02:41:00;15.90;82.90
71978;DHT22;59848;48.158;11.512;2022-07-10T02:43:26;15.90;83.60
71978;DHT22;59848;48.158;11.512;2022-07-10T02:45:51;15.90;83.50
71978;DHT22;59848;48.158;11.512;2022-07-10T02:48:17;16.00;83.90
71978;DHT22;59848;48.158;11.512;2022-07-10T02:50:43;15.90;83.90
71978;DHT22;59848;48.158;11.512;2022-07-10T02:53:09;16.00;83.80
71978;DHT22;59848;48.158;11.512;2022-07-10T02:55:34;16.00;83.70
71978;DHT22;59848;48.158;11.512;2022-07-10T02:58:00;15.90;83.60
71978;DHT22;59848;48.158;11.512;2022-07-10T03:00:26;15.80;83.50
71978;DHT22;59848;48.158;11.512;2022-07-10T03:02:53;15.80;83.70
71978;DHT22;59848;48.158;11.512;2022-07-10T03:05:19;15.80;84.00
71978;DHT22;59848;48.158;11.512;2022-07-10T03:07:45;15.70;83.90
71978;DHT22;59848;48.158;11.512;2022-07-10T03:10:10;15.70;84.30
71978;DHT22;59848;48.158;11.512;2022-07-10T03:12:36;15.70;84.50
71978;DHT22;59848;48.158;11.512;2022-07-10T03:15:03;15.70;84.40
71978;DHT22;59848;48.158;11.512;2022-07-10T03:17:29;15.70;84.40
71978;DHT22;59848;48.158;11.512;2022-07-10T03:19:54;15.70;84.40
71978;DHT22;59848;48.158;11.512;2022-07-10T03:22:20;15.70;84.70
71978;DHT22;59848;48.158;11.512;2022-07-10T03:24:46;15.70;84.50
71978;DHT22;59848;48.158;11.512;2022-07-10T03:27:12;15.70;84.50
71978;DHT22;59848;48.158;11.512;2022-07-10T03:29:39;15.70;84.50
71978;DHT22;59848;48.158;11.512;2022-07-10T03:32:04;15.70;84.60
71978;DHT22;59848;48.158;11.512;2022-07-10T03:34:30;15.70;84.30
71978;DHT22;59848;48.158;11.512;2022-07-10T03:36:58;15.70;84.30
71978;DHT22;59848;48.158;11.512;2022-07-10T03:39:23;15.50;84.50
71978;DHT22;59848;48.158;11.512;2022-07-10T03:41:49;15.60;84.80
71978;DHT22;59848;48.158;11.512;2022-07-10T03:44:14;15.70;85.00
71978;DHT22;59848;48.158;11.512;2022-07-10T03:46:40;15.60;84.40
71978;DHT22;59848;48.158;11.512;2022-07-10T03:49:05;15.60;84.50
71978;DHT22;59848;48.158;11.512;2022-07-10T03:51:31;15.60;84.40
71978;DHT22;59848;48.158;11.512;2022-07-10T03:53:56;15.60;84.40
71978;DHT22;59848;48.158;11.512;2022-07-10T03:56:22;15.60;84.30
71978;DHT22;59848;48.158;11.512;2022-07-10T03:59:06;15.70;84.30
71978;DHT22;59848;48.158;11.512;2022-07-10T04:01:31;15.70;84.20
71978;DHT22;59848;48.158;11.512;2022-07-10T04:03:57;15.70;83.80
71978;DHT22;59848;48.158;11.512;2022-07-10T04:06:22;15.80;83.20
71978;DHT22;59848;48.158;11.512;2022-07-10T04:08:48;15.90;83.50
71978;DHT22;59848;48.158;11.512;2022-07-10T04:11:13;16.00;83.40
71978;DHT22;59848;48.158;11.512;2022-07-10T04:13:39;16.00;82.90
71978;DHT22;59848;48.158;11.512;2022-07-10T04:16:05;16.00;82.90
71978;DHT22;59848;48.158;11.512;2022-07-10T04:18:30;16.10;83.00
71978;DHT22;59848;48.158;11.512;2022-07-10T04:20:56;16.20;82.70
71978;DHT22;59848;48.158;11.512;2022-07-10T04:23:21;16.20;82.10
71978;DHT22;59848;48.158;11.512;2022-07-10T04:25:47;16.40;82.40
71978;DHT22;59848;48.158;11.512;2022-07-10T04:28:12;16.50;81.90
71978;DHT22;59848;48.158;11.512;2022-07-10T04:30:38;16.60;81.60
71978;DHT22;59848;48.158;11.512;2022-07-10T04:33:04;16.50;81.60
71978;DHT22;59848;48.158;11.512;2022-07-10T04:35:29;16.60;81.30
71978;DHT22;59848;48.158;11.512;2022-07-10T04:37:55;16.60;80.50
71978;DHT22;59848;48.158;11.512;2022-07-10T04:40:20;16.50;80.80
71978;DHT22;59848;48.158;11.512;2022-07-10T04:42:46;16.40;81.40
71978;DHT22;59848;48.158;11.512;2022-07-10T04:45:11;16.40;81.20
71978;DHT22;59848;48.158;11.512;2022-07-10T04:47:37;16.50;81.60
71978;DHT22;59848;48.158;11.512;2022-07-10T04:50:02;16.40;81.20
71978;DHT22;59848;48.158;11.512;2022-07-10T04:52:28;16.40;81.30
71978;DHT22;59848;48.158;11.512;2022-07-10T04:54:53;16.40;81.10
71978;DHT22;59848;48.158;11.512;2022-07-10T04:57:19;16.20;81.80
71978;DHT22;59848;48.158;11.512;2022-07-10T04:59:45;16.40;81.70
71978;DHT22;59848;48.158;11.512;2022-07-10T05:02:10;16.30;81.30
71978;DHT22;59848;48.158;11.512;2022-07-10T05:04:36;16.20;82.00
71978;DHT22;59848;48.158;11.512;2022-07-10T05:07:01;16.40;81.40
71978;DHT22;59848;48.158;11.512;2022-07-10T05:09:27;16.30;81.50
71978;DHT22;59848;48.158;11.512;2022-07-10T05:11:53;16.40;81.40
71978;DHT22;59848;48.158;11.512;2022-07-10T05:14:18;16.30;81.30
71978;DHT22;59848;48.158;11.512;2022-07-10T05:16:44;16.30;81.30
71978;DHT22;59848;48.158;11.512;2022-07-10T05:19:09;16.40;81.20
71978;DHT22;59848;48.158;11.512;2022-07-10T05:21:35;16.50;81.10
71978;DHT22;59848;48.158;11.512;2022-07-10T05:24:00;16.50;80.80
71978;DHT22;59848;48.158;11.512;2022-07-10T05:26:26;16.30;80.70
71978;DHT22;59848;48.158;11.512;2022-07-10T05:28:52;16.40;80.70
71978;DHT22;59848;48.158;11.512;2022-07-10T05:31:17;16.40;80.50
71978;DHT22;59848;48.158;11.512;2022-07-10T05:33:43;16.50;80.80
71978;DHT22;59848;48.158;11.512;2022-07-10T05:36:09;16.50;80.10
71978;DHT22;59848;48.158;11.512;2022-07-10T05:38:35;16.50;79.50
71978;DHT22;59848;48.158;11.512;2022-07-10T05:41:00;16.50;79.50
71978;DHT22;59848;48.158;11.512;2022-07-10T05:43:26;16.50;79.20
71978;DHT22;59848;48.158;11.512;2022-07-10T05:45:52;16.40;79.20
71978;DHT22;59848;48.158;11.512;2022-07-10T05:48:17;16.50;79.20
71978;DHT22;59848;48.158;11.512;2022-07-10T05:50:43;16.60;78.80
71978;DHT22;59848;48.158;11.512;2022-07-10T05:53:08;16.70;78.40
71978;DHT22;59848;48.158;11.512;2022-07-10T05:55:34;16.80;78.40
71978;DHT22;59848;48.158;11.512;2022-07-10T05:57:59;17.00;77.90
71978;DHT22;59848;48.158;11.512;2022-07-10T06:00:25;17.40;77.50
71978;DHT22;59848;48.158;11.512;2022-07-10T06:02:51;17.70;74.50
71978;DHT22;59848;48.158;11.512;2022-07-10T06:05:16;17.70;73.80
71978;DHT22;59848;48.158;11.512;2022-07-10T06:07:42;17.70;74.50
71978;DHT22;59848;48.158;11.512;2022-07-10T06:10:08;17.60;74.50
71978;DHT22;59848;48.158;11.512;2022-07-10T06:12:33;17.50;75.00
71978;DHT22;59848;48.158;11.512;2022-07-10T06:14:59;17.40;73.90
71978;DHT22;59848;48.158;11.512;2022-07-10T06:17:24;17.30;74.30
71978;DHT22;59848;48.158;11.512;2022-07-10T06:19:50;17.20;75.20
71978;DHT22;59848;48.158;11.512;2022-07-10T06:22:16;17.20;75.60
71978;DHT22;59848;48.158;11.512;2022-07-10T06:24:58;17.20;76.10
71978;DHT22;59848;48.158;11.512;2022-07-10T06:27:23;17.10;76.10
71978;DHT22;59848;48.158;11.512;2022-07-10T06:29:49;17.10;75.60
71978;DHT22;59848;48.158;11.512;2022-07-10T06:32:15;17.00;75.70
71978;DHT22;59848;48.158;11.512;2022-07-10T06:34:40;17.10;76.20
71978;DHT22;59848;48.158;11.512;2022-07-10T06:37:06;17.10;76.10
71978;DHT22;59848;48.158;11.512;2022-07-10T06:39:33;17.00;75.90
71978;DHT22;59848;48.158;11.512;2022-07-10T06:42:05;17.00;76.70
71978;DHT22;59848;48.158;11.512;2022-07-10T06:44:31;17.00;75.90
71978;DHT22;59848;48.158;11.512;2022-07-10T06:46:57;17.10;75.90
71978;DHT22;59848;48.158;11.512;2022-07-10T06:49:42;17.20;75.60
71978;DHT22;59848;48.158;11.512;2022-07-10T06:52:08;17.00;74.60
71978;DHT22;59848;48.158;11.512;2022-07-10T06:54:34;17.00;75.60
71978;DHT22;59848;48.158;11.512;2022-07-10T06:57:00;17.00;74.70
71978;DHT22;59848;48.158;11.512;2022-07-10T06:59:26;17.00;75.20
71978;DHT22;59848;48.158;11.512;2022-07-10T07:01:52;17.20;75.10
71978;DHT22;59848;48.158;11.512;2022-07-10T07:04:18;17.50;74.90
71978;DHT22;59848;48.158;11.512;2022-07-10T07:06:43;17.90;73.40
71978;DHT22;59848;48.158;11.512;2022-07-10T07:09:09;18.00;72.60
71978;DHT22;59848;48.158;11.512;2022-07-10T07:11:34;18.10;70.50
71978;DHT22;59848;48.158;11.512;2022-07-10T07:14:00;17.80;71.60
71978;DHT22;59848;48.158;11.512;2022-07-10T07:16:25;17.70;72.70
71978;DHT22;59848;48.158;11.512;2022-07-10T07:19:04;18.00;71.90
71978;DHT22;59848;48.158;11.512;2022-07-10T07:21:30;18.00;71.50
71978;DHT22;59848;48.158;11.512;2022-07-10T07:24:14;18.10;71.00
71978;DHT22;59848;48.158;11.512;2022-07-10T07:26:40;18.40;70.20
71978;DHT22;59848;48.158;11.512;2022-07-10T07:29:05;18.40;69.40
71978;DHT22;59848;48.158;11.512;2022-07-10T07:31:31;18.30;69.40
71978;DHT22;59848;48.158;11.512;2022-07-10T07:33:57;18.30;69.60
71978;DHT22;59848;48.158;11.512;2022-07-10T07:36:23;18.20;69.90
71978;DHT22;59848;48.158;11.512;2022-07-10T07:38:48;18.40;69.80
71978;DHT22;59848;48.158;11.512;2022-07-10T07:41:14;18.90;67.70
71978;DHT22;59848;48.158;11.512;2022-07-10T07:43:40;19.10;67.00
71978;DHT22;59848;48.158;11.512;2022-07-10T07:46:06;19.50;64.90
71978;DHT22;59848;48.158;11.512;2022-07-10T07:48:32;19.30;65.50
71978;DHT22;59848;48.158;11.512;2022-07-10T07:50:57;19.10;65.10
71978;DHT22;59848;48.158;11.512;2022-07-10T07:53:23;18.70;66.00
71978;DHT22;59848;48.158;11.512;2022-07-10T07:55:49;18.70;66.40
71978;DHT22;59848;48.158;11.512;2022-07-10T07:58:14;18.80;67.50
71978;DHT22;59848;48.158;11.512;2022-07-10T08:00:40;19.00;66.10
71978;DHT22;59848;48.158;11.512;2022-07-10T08:03:07;19.10;66.20
71978;DHT22;59848;48.158;11.512;2022-07-10T08:05:33;18.90;65.50
71978;DHT22;59848;48.158;11.512;2022-07-10T08:07:59;19.00;66.30
71978;DHT22;59848;48.158;11.512;2022-07-10T08:10:30;19.10;65.00
71978;DHT22;59848;48.158;11.512;2022-07-10T08:12:56;19.40;63.40
71978;DHT22;59848;48.158;11.512;2022-07-10T08:15:22;19.60;61.10
71978;DHT22;59848;48.158;11.512;2022-07-10T08:17:52;19.80;62.00
71978;DHT22;59848;48.158;11.512;2022-07-10T08:20:18;20.20;59.90
71978;DHT22;59848;48.158;11.512;2022-07-10T08:22:44;20.00;58.50
71978;DHT22;59848;48.158;11.512;2022-07-10T08:25:10;19.90;58.60
71978;DHT22;59848;48.158;11.512;2022-07-10T08:27:37;19.80;57.40
71978;DHT22;59848;48.158;11.512;2022-07-10T08:30:04;19.80;57.50
71978;DHT22;59848;48.158;11.512;2022-07-10T08:32:30;19.40;59.40
71978;DHT22;59848;48.158;11.512;2022-07-10T08:34:55;19.30;60.60
71978;DHT22;59848;48.158;11.512;2022-07-10T08:37:21;18.90;62.00
71978;DHT22;59848;48.158;11.512;2022-07-10T08:39:47;19.10;61.60
71978;DHT22;59848;48.158;11.512;2022-07-10T08:42:15;19.20;60.90
71978;DHT22;59848;48.158;11.512;2022-07-10T08:44:41;19.60;58.20
71978;DHT22;59848;48.158;11.512;2022-07-10T08:47:07;20.20;56.80
71978;DHT22;59848;48.158;11.512;2022-07-10T08:49:33;20.40;55.60
71978;DHT22;59848;48.158;11.512;2022-07-10T08:52:08;19.80;55.70
71978;DHT22;59848;48.158;11.512;2022-07-10T08:54:38;19.50;57.00
71978;DHT22;59848;48.158;11.512;2022-07-10T08:57:04;19.40;58.30
71978;DHT22;59848;48.158;11.512;2022-07-10T08:59:30;19.50;58.80
71978;DHT22;59848;48.158;11.512;2022-07-10T09:01:56;19.20;58.70
71978;DHT22;59848;48.158;11.512;2022-07-10T09:04:25;19.60;59.40
71978;DHT22;59848;48.158;11.512;2022-07-10T09:06:53;19.60;56.30
71978;DHT22;59848;48.158;11.512;2022-07-10T09:09:19;19.90;55.00
71978;DHT22;59848;48.158;11.512;2022-07-10T09:11:58;20.40;55.40
71978;DHT22;59848;48.158;11.512;2022-07-10T09:14:26;21.00;54.20
71978;DHT22;59848;48.158;11.512;2022-07-10T09:16:53;20.70;52.10
71978;DHT22;59848;48.158;11.512;2022-07-10T09:19:24;20.40;52.80
71978;DHT22;59848;48.158;11.512;2022-07-10T09:22:06;20.20;53.80
71978;DHT22;59848;48.158;11.512;2022-07-10T09:24:39;20.70;53.00
71978;DHT22;59848;48.158;11.512;2022-07-10T09:27:06;20.90;49.90
71978;DHT22;59848;48.158;11.512;2022-07-10T09:29:44;20.60;50.40
71978;DHT22;59848;48.158;11.512;2022-07-10T09:32:11;20.20;51.50
71978;DHT22;59848;48.158;11.512;2022-07-10T09:34:45;20.30;51.10
71978;DHT22;59848;48.158;11.512;2022-07-10T09:37:21;20.20;52.90
71978;DHT22;59848;48.158;11.512;2022-07-10T09:40:13;21.00;48.70
71978;DHT22;59848;48.158;11.512;2022-07-10T09:42:41;20.80;50.30
71978;DHT22;59848;48.158;11.512;2022-07-10T09:50:29;21.00;50.20
71978;DHT22;59848;48.158;11.512;2022-07-10T09:52:57;21.10;48.30
71978;DHT22;59848;48.158;11.512;2022-07-10T09:55:26;21.10;48.30
71978;DHT22;59848;48.158;11.512;2022-07-10T09:57:55;21.20;46.60
71978;DHT22;59848;48.158;11.512;2022-07-10T10:00:26;21.10;47.10
71978;DHT22;59848;48.158;11.512;2022-07-10T10:02:56;21.00;48.10
71978;DHT22;59848;48.158;11.512;2022-07-10T10:05:30;21.20;46.10
71978;DHT22;59848;48.158;11.512;2022-07-10T10:08:00;21.50;46.50
71978;DHT22;59848;48.158;11.512;2022-07-10T10:10:26;21.30;45.60
71978;DHT22;59848;48.158;11.512;2022-07-10T10:12:55;21.50;45.00
71978;DHT22;59848;48.158;11.512;2022-07-10T10:15:22;21.30;44.70
71978;DHT22;59848;48.158;11.512;2022-07-10T10:17:50;21.20;45.30
71978;DHT22;59848;48.158;11.512;2022-07-10T10:20:17;21.50;43.80
71978;DHT22;59848;48.158;11.512;2022-07-10T10:23:02;21.50;43.90
71978;DHT22;59848;48.158;11.512;2022-07-10T10:25:32;22.00;43.40
71978;DHT22;59848;48.158;11.512;2022-07-10T10:28:00;22.20;43.50
71978;DHT22;59848;48.158;11.512;2022-07-10T10:30:26;21.80;44.80
71978;DHT22;59848;48.158;11.512;2022-07-10T10:32:52;21.50;45.30
71978;DHT22;59848;48.158;11.512;2022-07-10T10:35:43;21.20;46.20
71978;DHT22;59848;48.158;11.512;2022-07-10T10:38:12;21.30;45.20
71978;DHT22;59848;48.158;11.512;2022-07-10T10:40:38;21.70;45.10
71978;DHT22;59848;48.158;11.512;2022-07-10T10:45:46;21.90;45.20
71978;DHT22;59848;48.158;11.512;2022-07-10T10:48:13;21.50;44.70
71978;DHT22;59848;48.158;11.512;2022-07-10T10:53:16;21.40;45.70
71978;DHT22;59848;48.158;11.512;2022-07-10T10:58:29;22.00;44.20
71978;DHT22;59848;48.158;11.512;2022-07-10T11:01:04;22.20;43.30
71978;DHT22;59848;48.158;11.512;2022-07-10T11:03:30;22.60;43.10
71978;DHT22;59848;48.158;11.512;2022-07-10T11:05:56;22.60;42.00
71978;DHT22;59848;48.158;11.512;2022-07-10T11:08:38;22.30;42.70
71978;DHT22;59848;48.158;11.512;2022-07-10T11:13:58;22.20;42.00
71978;DHT22;59848;48.158;11.512;2022-07-10T11:16:24;22.00;43.60
71978;DHT22;59848;48.158;11.512;2022-07-10T11:18:53;22.20;42.40
71978;DHT22;59848;48.158;11.512;2022-07-10T11:21:25;22.40;41.50
71978;DHT22;59848;48.158;11.512;2022-07-10T11:24:06;22.50;41.60
71978;DHT22;59848;48.158;11.512;2022-07-10T11:26:49;22.20;42.20
71978;DHT22;59848;48.158;11.512;2022-07-10T11:29:18;21.90;41.70
71978;DHT22;59848;48.158;11.512;2022-07-10T11:31:53;22.00;42.20
71978;DHT22;59848;48.158;11.512;2022-07-10T11:34:18;22.20;42.60
71978;DHT22;59848;48.158;11.512;2022-07-10T11:36:44;22.60;42.10
71978;DHT22;59848;48.158;11.512;2022-07-10T11:39:12;22.70;41.80
71978;DHT22;59848;48.158;11.512;2022-07-10T11:41:43;22.40;42.10
71978;DHT22;59848;48.158;11.512;2022-07-10T11:44:14;22.20;43.10
71978;DHT22;59848;48.158;11.512;2022-07-10T11:46:41;22.60;42.00
71978;DHT22;59848;48.158;11.512;2022-07-10T11:49:09;22.40;40.90
71978;DHT22;59848;48.158;11.512;2022-07-10T11:51:37;22.00;42.30
71978;DHT22;59848;48.158;11.512;2022-07-10T11:54:09;21.80;42.70
71978;DHT22;59848;48.158;11.512;2022-07-10T11:56:39;22.20;42.20
71978;DHT22;59848;48.158;11.512;2022-07-10T11:59:09;22.20;41.80
71978;DHT22;59848;48.158;11.512;2022-07-10T12:01:41;22.50;41.90
71978;DHT22;59848;48.158;11.512;2022-07-10T12:04:09;22.50;41.00
71978;DHT22;59848;48.158;11.512;2022-07-10T12:06:37;22.70;40.90
71978;DHT22;59848;48.158;11.512;2022-07-10T12:09:27;22.70;40.50
71978;DHT22;59848;48.158;11.512;2022-07-10T12:12:04;22.40;42.20
71978;DHT22;59848;48.158;11.512;2022-07-10T12:14:31;23.00;40.70
71978;DHT22;59848;48.158;11.512;2022-07-10T12:16:58;22.80;40.20
71978;DHT22;59848;48.158;11.512;2022-07-10T12:21:51;23.50;38.80
71978;DHT22;59848;48.158;11.512;2022-07-10T12:24:18;23.70;39.40
71978;DHT22;59848;48.158;11.512;2022-07-10T12:26:45;23.90;38.80
71978;DHT22;59848;48.158;11.512;2022-07-10T12:29:25;24.60;38.70
71978;DHT22;59848;48.158;11.512;2022-07-10T12:31:53;25.00;36.10
71978;DHT22;59848;48.158;11.512;2022-07-10T12:34:20;24.10;37.40
71978;DHT22;59848;48.158;11.512;2022-07-10T12:36:57;23.60;38.50
71978;DHT22;59848;48.158;11.512;2022-07-10T12:39:24;23.70;39.40
71978;DHT22;59848;48.158;11.512;2022-07-10T12:42:08;23.90;37.70
71978;DHT22;59848;48.158;11.512;2022-07-10T12:47:10;24.00;37.90
71978;DHT22;59848;48.158;11.512;2022-07-10T12:54:45;24.50;37.40
71978;DHT22;59848;48.158;11.512;2022-07-10T12:57:11;24.70;36.30
71978;DHT22;59848;48.158;11.512;2022-07-10T12:59:36;24.40;36.90
71978;DHT22;59848;48.158;11.512;2022-07-10T13:04:40;24.20;37.10
71978;DHT22;59848;48.158;11.512;2022-07-10T13:07:12;23.80;37.10
71978;DHT22;59848;48.158;11.512;2022-07-10T13:09:39;23.50;37.60
71978;DHT22;59848;48.158;11.512;2022-07-10T13:12:05;23.20;38.50
71978;DHT22;59848;48.158;11.512;2022-07-10T13:14:31;23.10;38.70
71978;DHT22;59848;48.158;11.512;2022-07-10T13:16:57;23.90;37.80
71978;DHT22;59848;48.158;11.512;2022-07-10T13:19:22;24.40;36.80
71978;DHT22;59848;48.158;11.512;2022-07-10T13:21:47;24.50;36.00
71978;DHT22;59848;48.158;11.512;2022-07-10T13:24:13;24.20;36.10
71978;DHT22;59848;48.158;11.512;2022-07-10T13:26:38;24.10;36.00
71978;DHT22;59848;48.158;11.512;2022-07-10T13:29:04;24.00;36.40
71978;DHT22;59848;48.158;11.512;2022-07-10T13:31:29;24.20;36.50
71978;DHT22;59848;48.158;11.512;2022-07-10T13:33:55;24.10;35.90
71978;DHT22;59848;48.158;11.512;2022-07-10T13:36:21;24.00;35.50
71978;DHT22;59848;48.158;11.512;2022-07-10T13:38:47;24.20;36.10
71978;DHT22;59848;48.158;11.512;2022-07-10T13:41:15;24.20;35.40
71978;DHT22;59848;48.158;11.512;2022-07-10T13:43:40;24.50;35.20
71978;DHT22;59848;48.158;11.512;2022-07-10T13:46:06;25.10;33.90
71978;DHT22;59848;48.158;11.512;2022-07-10T13:48:31;25.30;33.50
71978;DHT22;59848;48.158;11.512;2022-07-10T13:50:57;25.30;32.80
71978;DHT22;59848;48.158;11.512;2022-07-10T13:53:22;26.10;32.50
71978;DHT22;59848;48.158;11.512;2022-07-10T13:55:48;26.00;31.20
71978;DHT22;59848;48.158;11.512;2022-07-10T13:58:14;25.80;32.50
71978;DHT22;59848;48.158;11.512;2022-07-10T14:00:40;26.10;31.70
71978;DHT22;59848;48.158;11.512;2022-07-10T14:03:06;26.20;31.40
71978;DHT22;59848;48.158;11.512;2022-07-10T14:05:32;26.10;31.70
71978;DHT22;59848;48.158;11.512;2022-07-10T14:07:58;25.00;33.10
71978;DHT22;59848;48.158;11.512;2022-07-10T14:10:24;25.10;33.00
71978;DHT22;59848;48.158;11.512;2022-07-10T14:12:50;25.80;32.70
71978;DHT22;59848;48.158;11.512;2022-07-10T14:15:16;26.70;30.40
71978;DHT22;59848;48.158;11.512;2022-07-10T14:17:42;26.70;30.40
71978;DHT22;59848;48.158;11.512;2022-07-10T14:20:09;26.70;30.70
71978;DHT22;59848;48.158;11.512;2022-07-10T14:22:35;27.40;30.10
71978;DHT22;59848;48.158;11.512;2022-07-10T14:25:01;28.10;29.40
71978;DHT22;59848;48.158;11.512;2022-07-10T14:27:26;27.90;28.40
71978;DHT22;59848;48.158;11.512;2022-07-10T14:29:53;27.40;29.00
71978;DHT22;59848;48.158;11.512;2022-07-10T14:32:18;27.70;29.00
71978;DHT22;59848;48.158;11.512;2022-07-10T14:34:44;28.20;28.40
71978;DHT22;59848;48.158;11.512;2022-07-10T14:37:09;28.20;28.90
71978;DHT22;59848;48.158;11.512;2022-07-10T14:39:34;28.10;28.60
71978;DHT22;59848;48.158;11.512;2022-07-10T14:42:01;28.20;28.30
71978;DHT22;59848;48.158;11.512;2022-07-10T14:44:27;28.10;28.20
71978;DHT22;59848;48.158;11.512;2022-07-10T14:46:52;28.00;27.80
71978;DHT22;59848;48.158;11.512;2022-07-10T14:49:18;28.10;27.90
71978;DHT22;59848;48.158;11.512;2022-07-10T14:51:43;28.00;27.50
71978;DHT22;59848;48.158;11.512;2022-07-10T14:54:09;27.70;27.70
71978;DHT22;59848;48.158;11.512;2022-07-10T14:56:35;26.80;29.60
71978;DHT22;59848;48.158;11.512;2022-07-10T14:59:01;27.20;29.60
71978;DHT22;59848;48.158;11.512;2022-07-10T15:01:26;26.80;29.70
71978;DHT22;59848;48.158;11.512;2022-07-10T15:03:52;27.40;29.40
71978;DHT22;59848;48.158;11.512;2022-07-10T15:06:20;28.20;27.80
71978;DHT22;59848;48.158;11.512;2022-07-10T15:08:46;28.10;28.00
71978;DHT22;59848;48.158;11.512;2022-07-10T15:11:16;27.90;28.00
71978;DHT22;59848;48.158;11.512;2022-07-10T15:13:41;28.40;27.30
71978;DHT22;59848;48.158;11.512;2022-07-10T15:16:07;28.40;26.70
71978;DHT22;59848;48.158;11.512;2022-07-10T15:18:33;28.00;28.10
71978;DHT22;59848;48.158;11.512;2022-07-10T15:20:58;28.70;26.70
71978;DHT22;59848;48.158;11.512;2022-07-10T15:23:24;29.10;26.40
71978;DHT22;59848;48.158;11.512;2022-07-10T15:25:50;28.50;26.50
71978;DHT22;59848;48.158;11.512;2022-07-10T15:28:16;28.80;26.50
71978;DHT22;59848;48.158;11.512;2022-07-10T15:30:42;29.00;26.80
71978;DHT22;59848;48.158;11.512;2022-07-10T15:33:08;28.80;26.10
71978;DHT22;59848;48.158;11.512;2022-07-10T15:35:34;29.10;26.00
71978;DHT22;59848;48.158;11.512;2022-07-10T15:38:00;28.90;25.80
71978;DHT22;59848;48.158;11.512;2022-07-10T15:40:26;28.50;26.10
71978;DHT22;59848;48.158;11.512;2022-07-10T15:42:51;28.40;27.00